createdAt,value
2018-09-15T00:01:43.071Z,101673.93
2018-09-15T00:04:11.442Z,101676.96
2018-09-15T00:06:39.826Z,101676.94
2018-09-15T00:09:09.006Z,101675.20
2018-09-15T00:11:37.398Z,101672.55
2018-09-15T00:14:05.768Z,101673.41
2018-09-15T00:16:34.181Z,101669.88
2018-09-15T00:19:02.563Z,101668.55
2018-09-15T00:21:30.967Z,101658.91
2018-09-15T00:23:59.362Z,101660.20
2018-09-15T00:26:27.777Z,101661.06
2018-09-15T00:28:56.160Z,101664.53
2018-09-15T00:31:24.531Z,101651.02
2018-09-15T00:33:52.919Z,101645.77
2018-09-15T00:36:21.310Z,101651.88
2018-09-15T00:38:49.713Z,101648.80
2018-09-15T00:41:18.090Z,101639.62
2018-09-15T00:43:46.483Z,101646.13
2018-09-15T00:46:14.849Z,101646.14
2018-09-15T00:48:43.244Z,101643.07
2018-09-15T00:51:11.626Z,101639.99
2018-09-15T00:53:40.012Z,101640.00
2018-09-15T00:56:08.379Z,101641.72
2018-09-15T00:58:36.762Z,101642.55
2018-09-15T01:01:05.123Z,101640.37
2018-09-15T01:03:33.519Z,101634.69
2018-09-15T01:06:01.881Z,101638.15
2018-09-15T01:08:30.450Z,101631.16
2018-09-15T01:10:58.805Z,101628.98
2018-09-15T01:13:27.198Z,101627.22
2018-09-15T01:15:55.557Z,101630.70
2018-09-15T01:18:23.941Z,101643.78
2018-09-15T01:20:52.298Z,101636.34
2018-09-15T01:23:20.734Z,101640.25
2018-09-15T01:25:49.106Z,101642.41
2018-09-15T01:28:17.494Z,101634.56
2018-09-15T01:30:45.853Z,101630.64
2018-09-15T01:33:14.230Z,101631.52
2018-09-15T01:35:42.599Z,101621.48
2018-09-15T01:38:10.981Z,101625.84
2018-09-15T01:40:39.334Z,101628.47
2018-09-15T01:43:07.731Z,101629.31
2018-09-15T01:45:36.137Z,101632.80
2018-09-15T01:48:04.534Z,101634.08
2018-09-15T01:50:32.908Z,101632.75
2018-09-15T01:53:01.290Z,101634.03
2018-09-15T01:55:29.655Z,101632.70
2018-09-15T01:57:58.037Z,101636.61
2018-09-15T02:00:26.401Z,101641.38
2018-09-15T02:02:54.787Z,101635.22
2018-09-15T02:05:23.150Z,101631.69
2018-09-15T02:07:51.539Z,101635.12
2018-09-15T02:10:19.898Z,101630.31
2018-09-15T02:12:48.282Z,101630.23
2018-09-15T02:15:16.642Z,101632.80
2018-09-15T02:17:45.022Z,101626.20
2018-09-15T02:20:13.374Z,101624.41
2018-09-15T02:22:41.826Z,101624.81
2018-09-15T02:25:10.193Z,101623.45
2018-09-15T02:27:38.553Z,101617.73
2018-09-15T02:30:06.946Z,101621.62
2018-09-15T02:32:35.301Z,101615.04
2018-09-15T02:35:03.686Z,101617.19
2018-09-15T02:37:32.058Z,101619.73
2018-09-15T02:40:00.442Z,101611.00
2018-09-15T02:42:28.802Z,101607.90
2018-09-15T02:44:57.192Z,101611.34
2018-09-15T02:47:25.555Z,101613.43
2018-09-15T02:49:53.987Z,101606.84
2018-09-15T02:52:22.348Z,101607.23
2018-09-15T02:54:50.770Z,101609.82
2018-09-15T02:57:19.130Z,101609.32
2018-09-15T02:59:47.506Z,101600.98
2018-09-15T03:02:15.894Z,101606.17
2018-09-15T03:04:44.282Z,101603.97
2018-09-15T03:07:12.664Z,101596.53
2018-09-15T03:09:41.058Z,101599.98
2018-09-15T03:12:09.430Z,101598.64
2018-09-15T03:14:37.815Z,101596.88
2018-09-15T03:17:06.500Z,101598.14
2018-09-15T03:19:34.902Z,101595.06
2018-09-15T03:22:03.275Z,101592.42
2018-09-15T03:24:31.681Z,101598.07
2018-09-15T03:27:00.052Z,101598.88
2018-09-15T03:29:28.445Z,101599.27
2018-09-15T03:31:56.815Z,101601.41
2018-09-15T03:34:25.216Z,101610.94
2018-09-15T03:36:53.623Z,101607.85
2018-09-15T03:39:22.005Z,101612.59
2018-09-15T03:41:50.425Z,101616.08
2018-09-15T03:44:18.781Z,101615.60
2018-09-15T03:46:47.155Z,101621.65
2018-09-15T03:49:15.550Z,101623.31
2018-09-15T03:51:43.915Z,101631.56
2018-09-15T03:54:17.398Z,101622.37
2018-09-15T03:56:45.862Z,101626.23
2018-09-15T03:59:14.577Z,101620.55
2018-09-15T04:01:42.955Z,101620.50
2018-09-15T04:04:11.362Z,101633.50
2018-09-15T04:06:39.725Z,101635.20
2018-09-15T04:09:10.138Z,101640.84
2018-09-15T04:11:38.590Z,101639.07
2018-09-15T04:14:07.301Z,101640.33
2018-09-15T04:16:35.758Z,101638.59
2018-09-15T04:19:04.147Z,101638.98
2018-09-15T04:21:32.531Z,101641.59
2018-09-15T04:24:00.946Z,101642.50
2018-09-15T04:26:29.319Z,101640.77
2018-09-15T04:28:57.749Z,101640.77
2018-09-15T04:31:26.275Z,101643.84
2018-09-15T04:33:54.654Z,101642.50
2018-09-15T04:36:23.041Z,101650.36
2018-09-15T04:38:51.409Z,101654.28
2018-09-15T04:41:19.794Z,101660.31
2018-09-15T04:43:48.338Z,101660.27
2018-09-15T04:46:16.730Z,101659.80
2018-09-15T04:48:45.098Z,101659.80
2018-09-15T04:51:13.486Z,101659.32
2018-09-15T04:53:41.850Z,101664.05
2018-09-15T04:56:10.239Z,101666.61
2018-09-15T04:58:38.608Z,101666.56
2018-09-15T05:01:07.034Z,101672.60
2018-09-15T05:03:35.410Z,101676.91
2018-09-15T05:06:03.805Z,101683.42
2018-09-15T05:08:32.347Z,101678.20
2018-09-15T05:11:00.955Z,101681.24
2018-09-15T05:13:29.370Z,101685.55
2018-09-15T05:15:57.776Z,101684.29
2018-09-15T05:18:26.142Z,101686.45
2018-09-15T05:20:54.535Z,101690.38
2018-09-15T05:23:23.882Z,101693.85
2018-09-15T05:25:52.315Z,101700.37
2018-09-15T05:28:20.682Z,101710.83
2018-09-15T05:30:49.084Z,101710.83
2018-09-15T05:33:17.490Z,101713.88
2018-09-15T05:35:45.886Z,101705.66
2018-09-15T05:38:14.291Z,101716.14
2018-09-15T05:40:42.842Z,101715.27
2018-09-15T05:43:11.298Z,101719.67
2018-09-15T05:45:39.692Z,101725.40
2018-09-15T05:48:08.062Z,101722.84
2018-09-15T05:50:36.449Z,101724.63
2018-09-15T05:53:04.810Z,101717.77
2018-09-15T05:55:33.210Z,101719.59
2018-09-15T05:58:01.581Z,101719.24
2018-09-15T06:00:30.032Z,101722.81
2018-09-15T06:02:58.369Z,101731.63
2018-09-15T06:05:26.770Z,101725.59
2018-09-15T06:07:55.150Z,101725.23
2018-09-15T06:10:23.542Z,101730.14
2018-09-15T06:12:51.910Z,101735.02
2018-09-15T06:15:20.318Z,101727.27
2018-09-15T06:17:48.686Z,101736.52
2018-09-15T06:20:17.076Z,101742.29
2018-09-15T06:22:45.465Z,101734.09
2018-09-15T06:25:13.878Z,101728.95
2018-09-15T06:27:42.258Z,101732.08
2018-09-15T06:30:10.629Z,101731.31
2018-09-15T06:32:39.023Z,101733.16
2018-09-15T06:35:07.389Z,101737.63
2018-09-15T06:37:35.788Z,101741.18
2018-09-15T06:40:04.166Z,101740.41
2018-09-15T06:42:32.553Z,101739.64
2018-09-15T06:45:00.913Z,101731.47
2018-09-15T06:47:29.302Z,101744.63
2018-09-15T06:49:57.688Z,101737.31
2018-09-15T06:52:26.074Z,101747.45
2018-09-15T06:54:54.437Z,101743.22
2018-09-15T06:57:22.827Z,101741.59
2018-09-15T06:59:51.198Z,101741.23
2018-09-15T07:02:19.591Z,101750.94
2018-09-15T07:04:47.966Z,101746.67
2018-09-15T07:07:16.390Z,101741.61
2018-09-15T07:09:44.758Z,101747.39
2018-09-15T07:12:13.149Z,101754.48
2018-09-15T07:14:41.506Z,101749.79
2018-09-15T07:17:09.898Z,101749.02
2018-09-15T07:19:38.304Z,101759.13
2018-09-15T07:22:06.749Z,101759.61
2018-09-15T07:24:35.138Z,101756.63
2018-09-15T07:27:03.519Z,101757.53
2018-09-15T07:29:31.886Z,101759.32
2018-09-15T07:32:00.311Z,101758.91
2018-09-15T07:34:28.665Z,101766.39
2018-09-15T07:36:57.048Z,101766.03
2018-09-15T07:39:25.430Z,101770.43
2018-09-15T07:41:53.850Z,101765.66
2018-09-15T07:44:22.397Z,101770.52
2018-09-15T07:46:50.786Z,101774.93
2018-09-15T07:49:19.166Z,101780.62
2018-09-15T07:51:47.631Z,101787.23
2018-09-15T07:54:15.988Z,101788.12
2018-09-15T07:56:44.386Z,101786.38
2018-09-15T07:59:12.815Z,101789.47
2018-09-15T08:01:41.198Z,101785.11
2018-09-15T08:04:09.573Z,101792.55
2018-09-15T08:06:37.961Z,101798.25
2018-09-15T08:09:07.053Z,101793.89
2018-09-15T08:11:35.728Z,101799.15
2018-09-15T08:14:04.102Z,101799.64
2018-09-15T08:16:32.502Z,101794.81
2018-09-15T08:19:00.863Z,101799.20
2018-09-15T08:21:29.245Z,101795.28
2018-09-15T08:23:57.653Z,101794.84
2018-09-15T08:26:26.052Z,101794.41
2018-09-15T08:28:54.955Z,101796.16
2018-09-15T08:31:23.313Z,101792.66
2018-09-15T08:33:51.706Z,101799.66
2018-09-15T08:36:20.071Z,101797.48
2018-09-15T08:38:48.453Z,101796.59
2018-09-15T08:41:16.864Z,101790.46
2018-09-15T08:43:45.223Z,101799.64
2018-09-15T08:46:13.582Z,101804.02
2018-09-15T08:48:41.965Z,101797.43
2018-09-15T08:51:10.329Z,101805.76
2018-09-15T08:53:38.714Z,101806.19
2018-09-15T08:56:07.150Z,101799.63
2018-09-15T08:58:35.543Z,101798.28
2018-09-15T09:01:03.911Z,101802.67
2018-09-15T09:03:32.299Z,101807.89
2018-09-15T09:06:00.670Z,101808.76
2018-09-15T09:08:29.062Z,101804.78
2018-09-15T09:10:57.426Z,101809.56
2018-09-15T09:13:25.837Z,101811.73
2018-09-15T09:15:54.210Z,101814.33
2018-09-15T09:18:22.590Z,101823.06
2018-09-15T09:20:51.142Z,101823.92
2018-09-15T09:23:19.554Z,101820.34
2018-09-15T09:25:47.918Z,101828.68
2018-09-15T09:28:16.293Z,101829.08
2018-09-15T09:30:46.045Z,101838.67
2018-09-15T09:33:14.440Z,101830.27
2018-09-15T09:35:42.809Z,101842.52
2018-09-15T09:38:11.199Z,101837.19
2018-09-15T09:40:39.569Z,101838.93
2018-09-15T09:43:07.969Z,101842.85
2018-09-15T09:45:36.327Z,101830.06
2018-09-15T09:48:04.767Z,101829.55
2018-09-15T09:50:33.105Z,101838.26
2018-09-15T09:53:01.481Z,101838.22
2018-09-15T09:55:29.846Z,101846.55
2018-09-15T09:57:58.227Z,101850.02
2018-09-15T10:00:31.923Z,101846.89
2018-09-15T10:03:00.319Z,101849.90
2018-09-15T10:05:28.681Z,101845.05
2018-09-15T10:07:57.062Z,101845.41
2018-09-15T10:10:25.421Z,101849.25
2018-09-15T10:12:53.806Z,101849.62
2018-09-15T10:15:22.189Z,101853.08
2018-09-15T10:17:50.578Z,101856.53
2018-09-15T10:20:18.941Z,101848.58
2018-09-15T10:22:47.350Z,101847.63
2018-09-15T10:25:15.770Z,101845.85
2018-09-15T10:27:44.170Z,101851.49
2018-09-15T10:30:12.619Z,101847.06
2018-09-15T10:32:40.978Z,101850.13
2018-09-15T10:37:36.778Z,101850.07
2018-09-15T10:40:05.396Z,101846.97
2018-09-15T10:42:33.938Z,101849.63
2018-09-15T10:45:02.318Z,101856.77
2018-09-15T10:47:30.682Z,101858.58
2018-09-15T10:49:59.078Z,101845.80
2018-09-15T10:52:27.464Z,101859.45
2018-09-15T10:54:55.858Z,101846.17
2018-09-15T10:57:24.223Z,101849.72
2018-09-15T10:59:52.611Z,101859.41
2018-09-15T11:02:20.987Z,101854.17
2018-09-15T11:04:49.374Z,101856.81
2018-09-15T11:07:17.733Z,101857.22
2018-09-15T11:09:46.123Z,101851.98
2018-09-15T11:12:16.287Z,101852.03
2018-09-15T11:14:45.129Z,101852.03
2018-09-15T11:17:15.067Z,101852.50
2018-09-15T11:19:45.110Z,101854.73
2018-09-15T11:22:13.495Z,101856.45
2018-09-15T11:24:41.923Z,101859.05
2018-09-15T11:27:10.302Z,101855.41
2018-09-15T11:29:38.688Z,101857.98
2018-09-15T11:32:07.078Z,101856.11
2018-09-15T11:34:35.467Z,101857.77
2018-09-15T11:37:03.830Z,101848.83
2018-09-15T11:39:32.205Z,101861.93
2018-09-15T11:42:00.566Z,101862.33
2018-09-15T11:44:28.955Z,101859.69
2018-09-15T11:46:57.325Z,101860.25
2018-09-15T11:49:25.714Z,101870.93
2018-09-15T11:51:54.080Z,101868.89
2018-09-15T11:54:22.482Z,101867.28
2018-09-15T11:56:50.862Z,101865.19
2018-09-15T11:59:19.241Z,101874.92
2018-09-15T12:01:47.607Z,101879.80
2018-09-15T12:04:15.994Z,101876.33
2018-09-15T12:06:44.361Z,101872.74
2018-09-15T12:09:12.770Z,101869.19
2018-09-15T12:11:41.139Z,101877.92
2018-09-15T12:14:09.562Z,101878.75
2018-09-15T12:16:38.054Z,101881.84
2018-09-15T12:19:06.442Z,101887.13
2018-09-15T12:21:34.825Z,101880.52
2018-09-15T12:24:03.238Z,101872.16
2018-09-15T12:26:31.642Z,101871.73
2018-09-15T12:29:00.034Z,101867.78
2018-09-15T12:31:28.397Z,101866.00
2018-09-15T12:33:56.812Z,101858.09
2018-09-15T12:36:25.198Z,101863.72
2018-09-15T12:38:53.558Z,101856.96
2018-09-15T12:41:21.944Z,101861.59
2018-09-15T12:43:50.328Z,101865.88
2018-09-15T12:46:18.709Z,101870.20
2018-09-15T12:48:47.506Z,101876.70
2018-09-15T12:51:15.894Z,101875.77
2018-09-15T12:53:44.374Z,101876.12
2018-09-15T12:56:12.759Z,101876.93
2018-09-15T12:58:41.126Z,101880.38
2018-09-15T13:01:09.510Z,101885.19
2018-09-15T13:03:37.866Z,101887.83
2018-09-15T13:06:06.304Z,101895.36
2018-09-15T13:08:34.665Z,101886.17
2018-09-15T13:11:03.069Z,101881.45
2018-09-15T13:13:31.474Z,101888.58
2018-09-15T13:15:59.866Z,101895.66
2018-09-15T13:18:28.225Z,101889.97
2018-09-15T13:20:56.649Z,101887.83
2018-09-15T13:23:25.030Z,101890.89
2018-09-15T13:25:53.416Z,101875.55
2018-09-15T13:28:21.778Z,101884.44
2018-09-15T13:30:50.181Z,101883.72
2018-09-15T13:33:18.549Z,101890.84
2018-09-15T13:35:46.958Z,101884.83
2018-09-15T13:38:15.321Z,101889.30
2018-09-15T13:40:43.727Z,101884.13
2018-09-15T13:43:12.088Z,101893.85
2018-09-15T13:45:40.533Z,101895.22
2018-09-15T13:48:08.898Z,101898.76
2018-09-15T13:50:37.286Z,101900.12
2018-09-15T13:53:05.822Z,101904.56
2018-09-15T13:55:34.210Z,101906.38
2018-09-15T13:58:02.577Z,101905.55
2018-09-15T14:00:30.973Z,101909.58
2018-09-15T14:02:59.342Z,101914.06
2018-09-15T14:05:27.742Z,101918.08
2018-09-15T14:07:56.109Z,101920.30
2018-09-15T14:10:24.490Z,101918.98
2018-09-15T14:12:52.857Z,101926.89
2018-09-15T14:15:21.241Z,101921.62
2018-09-15T14:17:49.605Z,101942.74
2018-09-15T14:20:18.002Z,101960.77
2018-09-15T14:22:46.407Z,101962.23
2018-09-15T14:25:14.810Z,101975.48
2018-09-15T14:27:43.246Z,101985.66
2018-09-15T14:30:11.605Z,101986.19
2018-09-15T14:32:39.986Z,101984.05
2018-09-15T14:35:08.342Z,101986.70
2018-09-15T14:37:36.723Z,101988.05
2018-09-15T14:40:05.082Z,101996.37
2018-09-15T14:42:34.039Z,102008.16
2018-09-15T14:45:02.394Z,102000.25
2018-09-15T14:47:30.774Z,101994.92
2018-09-15T14:49:59.146Z,101990.05
2018-09-15T14:52:27.553Z,101985.61
2018-09-15T14:54:55.917Z,101993.40
2018-09-15T14:57:24.297Z,101995.50
2018-09-15T14:59:52.654Z,102003.34
2018-09-15T15:02:21.038Z,102007.67
2018-09-15T15:04:49.407Z,102010.22
2018-09-15T15:07:17.793Z,102017.64
2018-09-15T15:09:46.322Z,102023.72
2018-09-15T15:12:14.732Z,102031.57
2018-09-15T15:14:43.100Z,102028.50
2018-09-15T15:17:11.486Z,102025.41
2018-09-15T15:19:39.923Z,102021.02
2018-09-15T15:22:08.267Z,102022.32
2018-09-15T15:24:36.687Z,102019.66
2018-09-15T15:27:05.111Z,102024.42
2018-09-15T15:29:33.490Z,102019.11
2018-09-15T15:32:01.884Z,102016.91
2018-09-15T15:34:30.266Z,102021.25
2018-09-15T15:36:58.654Z,102014.67
2018-09-15T15:39:27.026Z,102019.48
2018-09-15T15:41:55.485Z,102013.31
2018-09-15T15:44:23.870Z,102014.64
2018-09-15T15:46:52.253Z,102021.60
2018-09-15T15:49:20.619Z,102023.79
2018-09-15T15:51:49.010Z,102026.38
2018-09-15T15:54:17.383Z,102018.09
2018-09-15T15:56:45.773Z,102029.44
2018-09-15T15:59:14.218Z,102031.19
2018-09-15T16:01:42.552Z,102042.52
2018-09-15T16:04:10.941Z,102034.66
2018-09-15T16:06:39.611Z,102032.91
2018-09-15T16:09:08.730Z,102038.59
2018-09-15T16:11:37.954Z,102038.61
2018-09-15T16:14:06.386Z,102030.31
2018-09-15T16:16:34.885Z,102031.65
2018-09-15T16:19:03.278Z,102039.07
2018-09-15T16:21:31.690Z,102041.26
2018-09-15T16:24:00.091Z,102039.08
2018-09-15T16:26:28.490Z,102043.01
2018-09-15T16:28:56.863Z,102045.19
2018-09-15T16:31:25.219Z,102053.92
2018-09-15T16:33:53.598Z,102051.75
2018-09-15T16:36:21.950Z,102048.69
2018-09-15T16:38:50.338Z,102048.69
2018-09-15T16:41:18.698Z,102048.69
2018-09-15T16:43:47.083Z,102056.09
2018-09-15T16:46:15.710Z,102055.19
2018-09-15T16:48:44.150Z,102060.44
2018-09-15T16:51:12.509Z,102057.34
2018-09-15T16:53:41.465Z,102061.72
2018-09-15T16:56:09.818Z,102076.11
2018-09-15T16:58:38.218Z,102077.77
2018-09-15T17:01:06.729Z,102078.58
2018-09-15T17:03:35.118Z,102085.11
2018-09-15T17:06:03.564Z,102094.25
2018-09-15T17:08:31.967Z,102095.53
2018-09-15T17:11:00.487Z,102098.55
2018-09-15T17:13:28.875Z,102102.05
2018-09-15T17:15:57.302Z,102098.97
2018-09-15T17:18:25.651Z,102098.06
2018-09-15T17:20:54.001Z,102099.78
2018-09-15T17:23:22.421Z,102103.27
2018-09-15T17:25:50.803Z,102098.00
2018-09-15T17:28:19.190Z,102097.13
2018-09-15T17:30:47.550Z,102096.22
2018-09-15T17:33:15.930Z,102089.24
2018-09-15T17:35:44.303Z,102090.52
2018-09-15T17:38:12.946Z,102093.55
2018-09-15T17:40:41.302Z,102103.59
2018-09-15T17:43:09.725Z,102100.97
2018-09-15T17:45:38.174Z,102108.79
2018-09-15T17:48:06.766Z,102114.47
2018-09-15T17:50:35.213Z,102103.55
2018-09-15T17:53:03.606Z,102107.92
2018-09-15T17:55:32.090Z,102101.37
2018-09-15T17:58:00.469Z,102107.02
2018-09-15T18:00:29.695Z,102116.62
2018-09-15T18:02:58.093Z,102122.30
2018-09-15T18:05:26.446Z,102126.19
2018-09-15T18:07:54.831Z,102135.79
2018-09-15T18:10:23.194Z,102135.31
2018-09-15T18:12:51.578Z,102137.03
2018-09-15T18:15:19.938Z,102143.14
2018-09-15T18:17:48.326Z,102140.09
2018-09-15T18:20:16.686Z,102138.30
2018-09-15T18:22:45.069Z,102142.20
2018-09-15T18:25:13.467Z,102144.75
2018-09-15T18:27:41.830Z,102147.33
2018-09-15T18:30:10.234Z,102145.98
2018-09-15T18:32:38.593Z,102149.44
2018-09-15T18:35:06.974Z,102145.48
2018-09-15T18:37:35.341Z,102153.30
2018-09-15T18:40:03.722Z,102155.44
2018-09-15T18:42:32.086Z,102159.73
2018-09-15T18:45:00.476Z,102173.69
2018-09-15T18:47:28.843Z,102168.41
2018-09-15T18:49:57.239Z,102171.42
2018-09-15T18:52:25.599Z,102163.54
2018-09-15T18:54:54.129Z,102165.24
2018-09-15T18:57:22.583Z,102166.11
2018-09-15T18:59:50.980Z,102156.92
2018-09-15T19:02:19.337Z,102162.59
2018-09-15T19:04:47.731Z,102169.09
2018-09-15T19:07:16.087Z,102168.17
2018-09-15T19:09:44.477Z,102167.26
2018-09-15T19:12:12.833Z,102174.63
2018-09-15T19:14:41.275Z,102181.57
2018-09-15T19:17:09.607Z,102180.22
2018-09-15T19:19:37.997Z,102180.10
2018-09-15T19:22:06.514Z,102180.94
2018-09-15T19:24:35.106Z,102181.29
2018-09-15T19:27:03.503Z,102180.81
2018-09-15T19:29:31.898Z,102192.09
2018-09-15T19:32:00.280Z,102195.05
2018-09-15T19:34:28.668Z,102187.08
2018-09-15T19:36:57.051Z,102191.39
2018-09-15T19:39:25.451Z,102191.73
2018-09-15T19:41:53.805Z,102191.20
2018-09-15T19:44:22.203Z,102195.03
2018-09-15T19:46:50.576Z,102202.78
2018-09-15T19:49:18.974Z,102205.25
2018-09-15T19:51:47.336Z,102213.48
2018-09-15T19:54:15.718Z,102216.38
2018-09-15T19:56:44.082Z,102216.28
2018-09-15T19:59:12.528Z,102208.77
2018-09-15T20:01:40.974Z,102206.05
2018-09-15T20:04:09.374Z,102209.05
2018-09-15T20:06:37.796Z,102197.19
2018-09-15T20:09:08.239Z,102200.13
2018-09-15T20:11:36.681Z,102200.47
2018-09-15T20:14:05.068Z,102196.49
2018-09-15T20:16:32.384Z,102199.87
2018-09-15T20:18:59.743Z,102204.61
2018-09-15T20:21:27.186Z,102205.42
2018-09-15T20:23:55.671Z,102203.23
2018-09-15T20:26:24.070Z,102207.55
2018-09-15T20:28:52.626Z,102205.41
2018-09-15T20:31:21.373Z,102206.33
2018-09-15T20:33:49.730Z,102205.08
2018-09-15T20:36:18.119Z,102196.00
2018-09-15T20:38:46.498Z,102195.23
2018-09-15T20:41:14.891Z,102207.48
2018-09-15T20:43:43.271Z,102197.08
2018-09-15T20:46:11.672Z,102198.83
2018-09-15T20:48:40.035Z,102201.06
2018-09-15T20:51:08.550Z,102202.84
2018-09-15T20:53:36.911Z,102214.59
2018-09-15T20:56:05.304Z,102221.52
2018-09-15T20:58:33.692Z,102221.02
2018-09-15T21:01:02.078Z,102221.80
2018-09-15T21:03:32.213Z,102215.55
2018-09-15T21:06:00.929Z,102220.32
2018-09-15T21:08:29.462Z,102225.50
2018-09-15T21:10:57.858Z,102235.12
2018-09-15T21:13:26.219Z,102234.69
2018-09-15T21:15:54.662Z,102243.89
2018-09-15T21:18:23.030Z,102243.02
2018-09-15T21:20:51.411Z,102243.94
2018-09-15T21:23:19.802Z,102246.16
2018-09-15T21:25:48.217Z,102245.30
2018-09-15T21:28:16.569Z,102246.66
2018-09-15T21:30:44.970Z,102248.45
2018-09-15T21:33:13.476Z,102246.33
2018-09-15T21:35:41.871Z,102246.82
2018-09-15T21:38:10.229Z,102251.67
2018-09-15T21:40:38.610Z,102244.70
2018-09-15T21:43:06.986Z,102245.62
2018-09-15T21:45:35.363Z,102250.04
2018-09-15T21:48:03.841Z,102244.81
2018-09-15T21:50:32.222Z,102257.45
2018-09-15T21:53:00.582Z,102263.97
2018-09-15T21:55:28.958Z,102258.68
2018-09-15T21:57:57.320Z,102262.11
2018-09-15T22:00:25.705Z,102264.23
2018-09-15T22:02:54.066Z,102265.92
2018-09-15T22:05:22.449Z,102258.42
2018-09-15T22:07:50.803Z,102263.59
2018-09-15T22:10:19.182Z,102263.09
2018-09-15T22:12:49.201Z,102261.25
2018-09-15T22:15:25.471Z,102259.01
2018-09-15T22:17:55.251Z,102262.43
2018-09-15T22:20:23.663Z,102270.55
2018-09-15T22:22:52.046Z,102266.52
2018-09-15T22:25:20.430Z,102270.82
2018-09-15T22:27:49.207Z,102262.43
2018-09-15T22:30:17.566Z,102274.98
2018-09-15T22:32:45.947Z,102270.52
2018-09-15T22:35:14.315Z,102279.17
2018-09-15T22:37:42.697Z,102274.73
2018-09-15T22:40:11.694Z,102277.30
2018-09-15T22:42:40.307Z,102285.06
2018-09-15T22:45:08.745Z,102281.08
2018-09-15T22:47:37.126Z,102282.28
2018-09-15T22:50:05.822Z,102274.37
2018-09-15T22:52:34.536Z,102272.96
2018-09-15T22:55:03.404Z,102272.46
2018-09-15T22:57:31.946Z,102281.52
2018-09-15T23:00:00.363Z,102285.37
2018-09-15T23:02:28.744Z,102283.08
2018-09-15T23:04:57.098Z,102281.26
2018-09-15T23:07:25.506Z,102280.26
2018-09-15T23:09:53.876Z,102280.58
2018-09-15T23:12:22.262Z,102285.22
2018-09-15T23:14:50.613Z,102279.45
2018-09-15T23:17:18.993Z,102271.05
2018-09-15T23:19:47.355Z,102272.23
2018-09-15T23:22:15.742Z,102275.13
2018-09-15T23:24:44.126Z,102277.64
2018-09-15T23:27:12.497Z,102280.56
2018-09-15T23:29:40.859Z,102279.56
2018-09-15T23:32:09.237Z,102279.86
2018-09-15T23:34:37.611Z,102281.08
2018-09-15T23:37:06.181Z,102282.70
2018-09-15T23:39:34.543Z,102283.49
2018-09-15T23:42:02.914Z,102284.34
2018-09-15T23:44:31.276Z,102285.65
2018-09-15T23:46:59.653Z,102284.77
2018-09-15T23:49:28.010Z,102283.92
2018-09-15T23:51:56.389Z,102288.70
2018-09-15T23:54:24.750Z,102289.61
2018-09-15T23:56:53.137Z,102287.02
2018-09-15T23:59:21.494Z,102286.58
